الصفحة الرئيسية
METAR-TAF:

METAR-TAF

مطار :

مطار بوانت نوار

Pointe-Noire, كونغو

دائرة عرض: 04-49S, خط طول: 011-54E, ارتفاع: 17 متر

مراقبة الطقس الحالي

تاريخ ووقت الإصدار 1ساعة و 57 دقيقة قبل الساعة 00:00UTC
ريح 2 عقدة من الغرب/الجنوب الغربي
درجة الحرارة 24°درجة مئوية
الرطوبة 83%
ضغط 1016 hPa
الرؤية: 8000 متر
غيوم متفرقة على ارتفاع 1000 قدم

METAR: FCPP 050000Z 25002KT 8000 SCT010 24/21 Q1016 NOSIG

زمن: 02:57 (01:57 UTC)

توقعات

تاريخ ووقت الإصدار 2ساعات و 57 دقيقة قبل الساعة 23:00UTC
التوقعات صالحة من05 الساعة 00 UTC إلى 05 الساعة 24 UTC
ريح 4 عقدة من الجنوب/الجنوب الغربي
الرؤية: 8000 متر
غيوم متفرقة على ارتفاع 1500 قدم
نظرية الاحتمالات 30%
من 05 الساعة 04 UTC إلى 05 الساعة 08 UTC
الرؤية: 4000 متر
غشاء

TAF: FCPP 042300Z 0500/0524 20004KT 8000 SCT015 PROB30 0504/0508 4000 BR

أرصاد الطقس والتوقعات من أكثر من 4000 مطار (تقارير الطقس للمطار METAR والتنبؤ بالطقس بالمطارTAF).

المحطات المتاحة هي النقط الصفراء والحمراء على الخريطة.

حرك المؤشر فوق النقطة لمعرفة اسم المحطة.

ثم انقر لمعرفة أرصاد وتوقعات الطقس.

لتغيير الخارطة: اضغط على الأزرار الخضراء مع رمز الصليب الأسود للتكبير. على الزر الأخضر مع شرطة للتصغير، أو على الأسهم الخضراء للخرائط المجاورة.


METAR-TAF: